createdAt,value
2022-09-23T00:00:52.277Z,58.19
2022-09-23T00:01:56.832Z,58.29
2022-09-23T00:03:01.332Z,58.11
2022-09-23T00:04:05.664Z,58.26
2022-09-23T00:05:09.910Z,58.25
2022-09-23T00:06:14.198Z,58.22
2022-09-23T00:07:18.457Z,58.18
2022-09-23T00:08:22.724Z,58.31
2022-09-23T00:09:27.038Z,58.13
2022-09-23T00:10:31.334Z,58.24
2022-09-23T00:11:35.603Z,58.35
2022-09-23T00:12:40.884Z,58.35
2022-09-23T00:13:45.180Z,58.08
2022-09-23T00:14:49.502Z,58.18
2022-09-23T00:15:53.750Z,58.06
2022-09-23T00:16:58.295Z,58.26
2022-09-23T00:18:02.667Z,58.18
2022-09-23T00:19:07.179Z,58.31
2022-09-23T00:20:11.470Z,58.45
2022-09-23T00:21:15.751Z,58.46
2022-09-23T00:22:19.996Z,58.56
2022-09-23T00:23:24.285Z,58.56
2022-09-23T00:24:28.565Z,58.46
2022-09-23T00:25:32.864Z,58.31
2022-09-23T00:26:37.135Z,58.6
2022-09-23T00:27:41.391Z,58.55
2022-09-23T00:28:48.153Z,58.61
2022-09-23T00:29:52.389Z,58.54
2022-09-23T00:30:56.883Z,58.51
2022-09-23T00:32:01.183Z,58.57
2022-09-23T00:33:05.441Z,58.62
2022-09-23T00:34:09.752Z,58.55
2022-09-23T00:35:14.017Z,58.58
2022-09-23T00:36:18.322Z,58.55
2022-09-23T00:37:22.629Z,58.67
2022-09-23T00:38:26.897Z,58.68
2022-09-23T00:39:31.191Z,58.68
2022-09-23T00:40:35.691Z,58.63
2022-09-23T00:41:40.084Z,58.61
2022-09-23T00:42:44.416Z,58.67
2022-09-23T00:43:48.748Z,58.73
2022-09-23T00:44:53.004Z,58.7
2022-09-23T00:45:57.442Z,58.68
2022-09-23T00:47:01.766Z,58.67
2022-09-23T00:48:06.044Z,58.67
2022-09-23T00:49:10.347Z,58.57
2022-09-23T00:50:14.615Z,58.55
2022-09-23T00:51:19.043Z,58.77
2022-09-23T00:52:23.291Z,58.77
2022-09-23T00:53:27.543Z,58.77
2022-09-23T00:54:31.871Z,58.87
2022-09-23T00:55:36.144Z,58.72
2022-09-23T00:56:40.396Z,58.59
2022-09-23T00:57:44.684Z,58.72
2022-09-23T00:58:48.957Z,58.85
2022-09-23T00:59:53.233Z,58.79
2022-09-23T01:00:57.746Z,58.75
2022-09-23T01:02:02.713Z,58.8
2022-09-23T01:03:07.051Z,58.83
2022-09-23T01:04:11.328Z,58.77
2022-09-23T01:05:15.655Z,58.86
2022-09-23T01:06:19.916Z,58.89
2022-09-23T01:07:24.206Z,58.85
2022-09-23T01:08:28.476Z,58.82
2022-09-23T01:09:32.744Z,58.9
2022-09-23T01:10:37.043Z,58.98
2022-09-23T01:11:41.335Z,58.86
2022-09-23T01:12:45.582Z,58.81
2022-09-23T01:13:49.851Z,58.87
2022-09-23T01:14:54.155Z,58.97
2022-09-23T01:15:59.415Z,58.93
2022-09-23T01:17:03.922Z,58.94
2022-09-23T01:18:08.264Z,59
2022-09-23T01:19:12.530Z,58.9
2022-09-23T01:20:16.801Z,58.97
2022-09-23T01:21:21.075Z,58.99
2022-09-23T01:22:25.350Z,58.81
2022-09-23T01:23:29.648Z,59.02
2022-09-23T01:24:33.903Z,59.03
2022-09-23T01:25:38.148Z,58.98
2022-09-23T01:26:42.414Z,58.97
2022-09-23T01:27:46.676Z,58.96
2022-09-23T01:28:50.985Z,58.84
2022-09-23T01:29:55.238Z,59.04
2022-09-23T01:30:59.830Z,58.95
2022-09-23T01:32:04.146Z,59.03
2022-09-23T01:33:08.401Z,58.99
2022-09-23T01:34:12.645Z,58.99
2022-09-23T01:35:16.937Z,59.12
2022-09-23T01:36:21.213Z,59.15
2022-09-23T01:37:25.556Z,59.07
2022-09-23T01:38:29.827Z,58.91
2022-09-23T01:39:34.102Z,59.07
2022-09-23T01:40:38.638Z,59.04
2022-09-23T01:41:42.970Z,59.09
2022-09-23T01:42:47.246Z,59.12
2022-09-23T01:43:51.477Z,59.23
2022-09-23T01:44:55.743Z,59.07
2022-09-23T01:46:00.010Z,59.19
2022-09-23T01:47:04.360Z,58.7
2022-09-23T01:48:08.830Z,59.05
2022-09-23T01:49:13.181Z,59.22
2022-09-23T01:50:17.435Z,58.84
2022-09-23T01:51:21.722Z,59.14
2022-09-23T01:52:25.994Z,59.14
2022-09-23T01:53:30.261Z,58.95
2022-09-23T01:54:34.531Z,59.3
2022-09-23T01:55:38.842Z,59.14
2022-09-23T01:56:43.126Z,59.3
2022-09-23T01:57:47.415Z,59.21
2022-09-23T01:58:51.674Z,59.28
2022-09-23T01:59:55.971Z,59.25
2022-09-23T02:01:00.452Z,59.3
2022-09-23T02:02:05.030Z,59.33
2022-09-23T02:03:09.354Z,59.33
2022-09-23T02:04:13.604Z,59.24
2022-09-23T02:05:17.900Z,59.25
2022-09-23T02:06:22.153Z,59.28
2022-09-23T02:07:26.453Z,59.24
2022-09-23T02:08:30.726Z,59.32
2022-09-23T02:09:34.992Z,58.8
2022-09-23T02:10:39.255Z,59.37
2022-09-23T02:11:43.549Z,59.2
2022-09-23T02:12:47.780Z,59.38
2022-09-23T02:13:52.059Z,59.26
2022-09-23T02:14:56.322Z,59.4
2022-09-23T02:16:00.585Z,59.54
2022-09-23T02:17:04.980Z,59.44
2022-09-23T02:18:09.234Z,59.37
2022-09-23T02:19:13.532Z,59.48
2022-09-23T02:20:17.819Z,59.32
2022-09-23T02:21:22.077Z,59.48
2022-09-23T02:22:26.379Z,59.38
2022-09-23T02:23:30.658Z,58.59
2022-09-23T02:24:34.974Z,59.31
2022-09-23T02:25:39.233Z,59.37
2022-09-23T02:26:43.481Z,59.31
2022-09-23T02:27:47.786Z,59.3
2022-09-23T02:28:52.035Z,58.89
2022-09-23T02:29:56.317Z,59.31
2022-09-23T02:31:00.580Z,59.29
2022-09-23T02:32:05.065Z,59.33
2022-09-23T02:33:09.437Z,59.35
2022-09-23T02:34:13.702Z,59.29
2022-09-23T02:35:17.941Z,59.29
2022-09-23T02:36:22.229Z,59.36
2022-09-23T02:37:26.517Z,59.37
2022-09-23T02:38:30.779Z,59.38
2022-09-23T02:39:35.028Z,59.3
2022-09-23T02:40:39.620Z,59.37
2022-09-23T02:41:44.146Z,59.37
2022-09-23T02:42:48.440Z,59.41
2022-09-23T02:43:52.707Z,59.38
2022-09-23T02:44:56.977Z,59.24
2022-09-23T02:46:01.434Z,59.27
2022-09-23T02:47:05.770Z,59.28
2022-09-23T02:48:10.015Z,59.37
2022-09-23T02:49:14.277Z,59.37
2022-09-23T02:50:18.530Z,59.39
2022-09-23T02:51:22.793Z,59.5
2022-09-23T02:52:27.251Z,59.31
2022-09-23T02:53:31.494Z,59.41
2022-09-23T02:54:35.877Z,59.34
2022-09-23T02:55:40.159Z,59.26
2022-09-23T02:56:44.419Z,59.45
2022-09-23T02:57:48.742Z,59.32
2022-09-23T02:58:53.019Z,59.38
2022-09-23T02:59:57.315Z,59.23
2022-09-23T03:01:01.910Z,58.91
2022-09-23T03:02:06.394Z,59.27
2022-09-23T03:03:10.687Z,59.17
2022-09-23T03:04:14.974Z,59.37
2022-09-23T03:05:19.285Z,59.44
2022-09-23T03:06:23.528Z,59.39
2022-09-23T03:07:27.778Z,58.86
2022-09-23T03:08:32.037Z,59.43
2022-09-23T03:09:36.285Z,59.39
2022-09-23T03:10:40.599Z,59.47
2022-09-23T03:11:45.136Z,59.49
2022-09-23T03:12:49.392Z,59.2
2022-09-23T03:13:53.645Z,59.43
2022-09-23T03:14:57.883Z,59.53
2022-09-23T03:16:02.413Z,59.24
2022-09-23T03:17:06.704Z,59.59
2022-09-23T03:18:10.978Z,59.55
2022-09-23T03:19:15.278Z,58.97
2022-09-23T03:20:19.551Z,59.53
2022-09-23T03:21:23.807Z,59.31
2022-09-23T03:22:28.083Z,59.63
2022-09-23T03:23:32.457Z,59.49
2022-09-23T03:24:36.843Z,59.38
2022-09-23T03:25:41.138Z,59.49
2022-09-23T03:26:45.419Z,59.49
2022-09-23T03:27:49.728Z,59.59
2022-09-23T03:28:54.001Z,59.53
2022-09-23T03:29:58.246Z,59.59
2022-09-23T03:31:02.495Z,59.53
2022-09-23T03:32:06.966Z,59.62
2022-09-23T03:33:11.277Z,59.33
2022-09-23T03:34:15.599Z,59.49
2022-09-23T03:35:19.865Z,59.23
2022-09-23T03:36:24.105Z,59.41
2022-09-23T03:37:28.372Z,59.5
2022-09-23T03:38:32.642Z,59.45
2022-09-23T03:39:37.937Z,59.64
2022-09-23T03:40:42.456Z,59.61
2022-09-23T03:41:46.724Z,59.57
2022-09-23T03:42:51.040Z,59.34
2022-09-23T03:43:55.333Z,59.44
2022-09-23T03:44:59.598Z,59.64
2022-09-23T03:46:04.131Z,59.37
2022-09-23T03:47:08.485Z,59.43
2022-09-23T03:48:12.765Z,59.58
2022-09-23T03:49:17.041Z,59.7
2022-09-23T03:50:21.300Z,59.7
2022-09-23T03:51:25.581Z,59.3
2022-09-23T03:52:29.851Z,59.6
2022-09-23T03:53:34.154Z,59.71
2022-09-23T03:54:38.461Z,59.8
2022-09-23T03:55:42.734Z,59.74
2022-09-23T03:56:47.016Z,59.73
2022-09-23T03:57:51.286Z,59.78
2022-09-23T03:58:55.573Z,59.64
2022-09-23T03:59:59.835Z,59.89
2022-09-23T04:01:04.365Z,59.97
2022-09-23T04:02:08.874Z,59.9
2022-09-23T04:03:14.028Z,59.9
2022-09-23T04:04:18.318Z,59.83
2022-09-23T04:05:22.634Z,59.87
2022-09-23T04:06:26.922Z,59.61
2022-09-23T04:07:31.182Z,59.4
2022-09-23T04:08:35.462Z,59.44
2022-09-23T04:09:39.753Z,59.01
2022-09-23T04:10:44.052Z,58.18
2022-09-23T04:11:48.375Z,59.09
2022-09-23T04:12:52.631Z,58.92
2022-09-23T04:13:56.887Z,57.89
2022-09-23T04:15:01.161Z,58.02
2022-09-23T04:16:05.612Z,57.04
2022-09-23T04:17:09.946Z,57.23
2022-09-23T04:18:14.201Z,56.57
2022-09-23T04:19:18.468Z,56.63
2022-09-23T04:20:22.729Z,56.63
2022-09-23T04:21:27.267Z,56.24
2022-09-23T04:22:31.591Z,56.29
2022-09-23T04:23:35.861Z,55.95
2022-09-23T04:24:40.119Z,55.32
2022-09-23T04:25:44.410Z,55.44
2022-09-23T04:26:48.681Z,55.36
2022-09-23T04:27:52.981Z,55.55
2022-09-23T04:28:57.237Z,55.07
2022-09-23T04:30:01.489Z,55.14
2022-09-23T04:31:05.972Z,55.56
2022-09-23T04:32:10.268Z,55.39
2022-09-23T04:33:14.566Z,55.56
2022-09-23T04:34:18.852Z,55.33
2022-09-23T04:35:23.111Z,54.96
2022-09-23T04:36:27.380Z,55
2022-09-23T04:37:31.903Z,55.34
2022-09-23T04:38:36.155Z,54.97
2022-09-23T04:39:40.474Z,55.07
2022-09-23T04:40:45.104Z,55.15
2022-09-23T04:41:49.417Z,55.19
2022-09-23T04:42:53.712Z,55.04
2022-09-23T04:43:57.955Z,55.09
2022-09-23T04:45:02.232Z,55.11
2022-09-23T04:46:06.506Z,55.12
2022-09-23T04:47:10.867Z,54.93
2022-09-23T04:48:15.113Z,55
2022-09-23T04:49:19.365Z,55
2022-09-23T04:50:23.639Z,54.83
2022-09-23T04:51:27.896Z,54.87
2022-09-23T04:52:32.298Z,54.88
2022-09-23T04:53:36.602Z,54.85
2022-09-23T04:54:40.892Z,54.64
2022-09-23T04:55:45.138Z,54.61
2022-09-23T04:56:49.440Z,54.69
2022-09-23T04:57:53.675Z,54.55
2022-09-23T04:58:57.964Z,54.59
2022-09-23T05:00:02.238Z,54.5
2022-09-23T05:01:07.622Z,54.34
2022-09-23T05:02:12.230Z,54.43
2022-09-23T05:03:16.540Z,54.58
2022-09-23T05:04:20.778Z,54.46
2022-09-23T05:05:25.044Z,54.42
2022-09-23T05:06:29.326Z,54.27
2022-09-23T05:07:33.614Z,54.27
2022-09-23T05:08:37.925Z,54.19
2022-09-23T05:09:42.191Z,54.17
2022-09-23T05:10:46.478Z,54.01
2022-09-23T05:11:50.754Z,54.28
2022-09-23T05:12:59.210Z,54.44
2022-09-23T05:14:03.519Z,54.21
2022-09-23T05:15:07.805Z,54.26
2022-09-23T05:16:12.356Z,54.2
2022-09-23T05:17:16.660Z,54.25
2022-09-23T05:18:22.843Z,54.35
2022-09-23T05:19:27.109Z,54.2
2022-09-23T05:20:31.378Z,54.15
2022-09-23T05:21:35.660Z,54.11
2022-09-23T05:22:39.975Z,54.04
2022-09-23T05:23:44.230Z,54.08
2022-09-23T05:24:48.772Z,53.93
2022-09-23T05:25:53.028Z,53.97
2022-09-23T05:26:57.277Z,53.93
2022-09-23T05:28:01.578Z,54.14
2022-09-23T05:29:06.279Z,54.1
2022-09-23T05:30:10.665Z,54.02
2022-09-23T05:31:22.104Z,53.88
2022-09-23T05:32:26.438Z,53.57
2022-09-23T05:33:30.713Z,53.75
2022-09-23T05:34:35.045Z,53.36
2022-09-23T05:35:39.324Z,53.39
2022-09-23T05:36:43.557Z,53.26
2022-09-23T05:37:47.824Z,52.92
2022-09-23T05:38:52.366Z,52.76
2022-09-23T05:39:56.618Z,53.19
2022-09-23T05:41:00.960Z,53.35
2022-09-23T05:42:05.234Z,53.11
2022-09-23T05:43:11.791Z,53.01
2022-09-23T05:44:16.062Z,52.94
2022-09-23T05:45:20.456Z,53
2022-09-23T05:46:24.924Z,53.04
2022-09-23T05:47:29.222Z,53.1
2022-09-23T05:48:33.475Z,52.95
2022-09-23T05:50:01.635Z,53.12
2022-09-23T05:51:05.940Z,53.18
2022-09-23T05:52:10.247Z,53.02
2022-09-23T05:53:14.502Z,52.9
2022-09-23T05:54:18.765Z,53.03
2022-09-23T05:55:23.018Z,53.01
2022-09-23T05:56:27.483Z,53.11
2022-09-23T05:57:31.780Z,52.74
2022-09-23T05:58:36.057Z,52.9
2022-09-23T05:59:40.316Z,52.91
2022-09-23T06:00:44.606Z,52.88
2022-09-23T06:01:51.049Z,52.63
2022-09-23T06:02:56.575Z,52.55
2022-09-23T06:04:01.091Z,52.56
2022-09-23T06:05:05.369Z,52.57
2022-09-23T06:06:09.678Z,52.56
2022-09-23T06:07:13.927Z,52.5
2022-09-23T06:08:18.347Z,52.59
2022-09-23T06:09:22.634Z,52.43
2022-09-23T06:10:26.922Z,52.47
2022-09-23T06:11:31.233Z,52.43
2022-09-23T06:12:35.491Z,52.44
2022-09-23T06:13:39.778Z,52.5
2022-09-23T06:14:44.038Z,52.48
2022-09-23T06:15:48.562Z,52.45
2022-09-23T06:16:52.869Z,52.59
2022-09-23T06:17:57.166Z,52.61
2022-09-23T06:19:07.961Z,52.66
2022-09-23T06:20:12.206Z,52.37
2022-09-23T06:21:16.464Z,52.5
2022-09-23T06:22:21.011Z,52.81
2022-09-23T06:23:28.537Z,52.74
2022-09-23T06:24:33.754Z,52.45
2022-09-23T06:25:38.026Z,52.59
2022-09-23T06:26:42.289Z,52.52
2022-09-23T06:27:46.540Z,52.7
2022-09-23T06:28:50.771Z,52.53
2022-09-23T06:29:55.041Z,52.79
2022-09-23T06:30:59.651Z,52.6
2022-09-23T06:32:04.166Z,52.76
2022-09-23T06:33:08.442Z,52.79
2022-09-23T06:34:19.218Z,52.71
2022-09-23T06:35:29.090Z,52.89
2022-09-23T06:36:47.194Z,52.61
2022-09-23T06:37:51.666Z,52.83
2022-09-23T06:38:55.918Z,52.5
2022-09-23T06:40:00.189Z,52.58
2022-09-23T06:41:04.478Z,52.49
2022-09-23T06:42:08.749Z,52.85
2022-09-23T06:43:13.025Z,52.97
2022-09-23T06:44:17.270Z,52.77
2022-09-23T06:45:21.526Z,52.91
2022-09-23T06:46:26.109Z,52.92
2022-09-23T06:47:30.416Z,52.7
2022-09-23T06:48:34.698Z,52.6
2022-09-23T06:49:38.957Z,52.82
2022-09-23T06:50:43.221Z,52.46
2022-09-23T06:51:47.527Z,52.88
2022-09-23T06:52:51.783Z,52.82
2022-09-23T06:53:56.034Z,52.85
2022-09-23T06:55:00.351Z,52.66
2022-09-23T06:56:04.640Z,52.83
2022-09-23T06:57:08.963Z,52.58
2022-09-23T06:58:13.234Z,52.79
2022-09-23T06:59:17.488Z,52.54
2022-09-23T07:00:21.797Z,52.89
2022-09-23T07:01:26.256Z,52.53
2022-09-23T07:02:31.583Z,52.91
2022-09-23T07:03:35.958Z,52.84
2022-09-23T07:04:40.230Z,52.61
2022-09-23T07:05:44.481Z,52.5
2022-09-23T07:06:48.741Z,52.47
2022-09-23T07:07:53.031Z,52.7
2022-09-23T07:08:57.303Z,52.56
2022-09-23T07:10:01.565Z,52.85
2022-09-23T07:11:05.836Z,52.91
2022-09-23T07:12:10.121Z,52.88
2022-09-23T07:13:18.232Z,52.71
2022-09-23T07:14:22.730Z,52.61
2022-09-23T07:15:26.974Z,52.82
2022-09-23T07:16:31.414Z,52.9
2022-09-23T07:17:35.805Z,52.83
2022-09-23T07:18:40.205Z,52.84
2022-09-23T07:19:44.497Z,52.65
2022-09-23T07:20:48.758Z,52.9
2022-09-23T07:21:53.036Z,52.89
2022-09-23T07:22:57.342Z,52.59
2022-09-23T07:24:01.661Z,52.67
2022-09-23T07:25:05.910Z,52.76
2022-09-23T07:26:10.170Z,52.81
2022-09-23T07:27:14.469Z,52.71
2022-09-23T07:28:18.782Z,52.76
2022-09-23T07:29:23.081Z,52.61
2022-09-23T07:30:27.778Z,52.7
2022-09-23T07:31:41.279Z,52.76
2022-09-23T07:32:51.075Z,52.68
2022-09-23T07:33:55.387Z,52.62
2022-09-23T07:34:59.693Z,52.84
2022-09-23T07:36:03.940Z,52.79
2022-09-23T07:37:08.197Z,52.62
2022-09-23T07:38:12.480Z,52.67
2022-09-23T07:39:16.718Z,52.81
2022-09-23T07:40:21.255Z,52.68
2022-09-23T07:41:25.586Z,52.73
2022-09-23T07:42:29.915Z,52.67
2022-09-23T07:43:34.205Z,52.82
2022-09-23T07:44:38.506Z,52.8
2022-09-23T07:45:42.819Z,52.67
2022-09-23T07:46:47.370Z,52.78
2022-09-23T07:47:51.990Z,52.85
2022-09-23T07:48:56.265Z,52.79
2022-09-23T07:50:00.538Z,52.57
2022-09-23T07:51:04.810Z,52.56
2022-09-23T07:52:09.060Z,52.59
2022-09-23T07:53:13.330Z,52.78
2022-09-23T07:54:17.636Z,52.58
2022-09-23T07:55:23.170Z,52.49
2022-09-23T07:56:27.414Z,52.95
2022-09-23T07:57:31.784Z,52.79
2022-09-23T07:58:36.121Z,52.78
2022-09-23T07:59:40.402Z,52.75
2022-09-23T08:00:44.674Z,52.75
2022-09-23T08:01:49.132Z,52.67
2022-09-23T08:02:55.545Z,52.68
2022-09-23T08:03:59.817Z,52.59
2022-09-23T08:05:04.120Z,52.49
2022-09-23T08:06:08.396Z,52.52
2022-09-23T08:07:12.671Z,52.48
2022-09-23T08:08:16.933Z,52.49
2022-09-23T08:09:21.183Z,52.48
2022-09-23T08:10:25.466Z,52.43
2022-09-23T08:11:29.740Z,52.44
2022-09-23T08:12:34.042Z,52.42
2022-09-23T08:13:38.319Z,52.43
2022-09-23T08:14:42.615Z,52.42
2022-09-23T08:15:46.983Z,52.44
2022-09-23T08:16:52.351Z,52.44
2022-09-23T08:17:56.671Z,52.47
2022-09-23T08:19:01.374Z,52.39
2022-09-23T08:20:05.766Z,52.37
2022-09-23T08:21:10.018Z,52.36
2022-09-23T08:22:14.310Z,52.35
2022-09-23T08:23:18.617Z,52.32
2022-09-23T08:24:22.879Z,52.36
2022-09-23T08:25:27.212Z,52.33
2022-09-23T08:26:31.723Z,52.31
2022-09-23T08:27:35.996Z,52.35
2022-09-23T08:28:40.323Z,52.34
2022-09-23T08:29:44.599Z,52.33
2022-09-23T08:30:49.000Z,52.32
2022-09-23T08:31:53.432Z,52.32
2022-09-23T08:32:57.685Z,52.28
2022-09-23T08:34:02.268Z,52.31
2022-09-23T08:35:06.597Z,52.26
2022-09-23T08:36:10.848Z,52.29
2022-09-23T08:37:15.106Z,52.23
2022-09-23T08:38:19.391Z,52.25
2022-09-23T08:39:23.664Z,52.26
2022-09-23T08:40:28.113Z,52.21
2022-09-23T08:41:32.410Z,52.16
2022-09-23T08:42:36.662Z,52.17
2022-09-23T08:43:40.956Z,52.22
2022-09-23T08:44:45.213Z,52.24
2022-09-23T08:45:49.566Z,52.24
2022-09-23T08:46:53.824Z,52.19
2022-09-23T08:47:58.106Z,52.26
2022-09-23T08:49:02.357Z,52.16
2022-09-23T08:50:06.687Z,52.17
2022-09-23T08:51:10.959Z,52.2
2022-09-23T08:52:15.201Z,52.15
2022-09-23T08:53:19.501Z,52.21
2022-09-23T08:54:23.743Z,52.15
2022-09-23T08:55:30.288Z,52.15
2022-09-23T08:56:37.461Z,52.19
2022-09-23T08:57:41.742Z,52.26
2022-09-23T08:58:46.041Z,52.27
2022-09-23T08:59:50.383Z,52.23
2022-09-23T09:00:54.663Z,52.2
2022-09-23T09:01:58.945Z,52.18
2022-09-23T09:03:03.199Z,52.25
2022-09-23T09:04:13.719Z,52.22
2022-09-23T09:05:18.071Z,52.19
2022-09-23T09:06:22.323Z,52.22
2022-09-23T09:07:39.452Z,52.23
2022-09-23T09:08:43.764Z,52.15
2022-09-23T09:09:48.030Z,52.17
2022-09-23T09:10:52.319Z,52.18
2022-09-23T09:11:56.606Z,52.15
2022-09-23T09:13:00.865Z,52.14
2022-09-23T09:14:07.534Z,52.14
2022-09-23T09:15:11.810Z,52.15
2022-09-23T09:16:18.798Z,52.11
2022-09-23T09:17:25.386Z,52.12
2022-09-23T09:18:29.642Z,52.13
2022-09-23T09:19:33.915Z,52.09
2022-09-23T09:20:38.203Z,52.14
2022-09-23T09:21:42.507Z,52.11
2022-09-23T09:22:46.770Z,52.15
2022-09-23T09:23:51.031Z,52.13
2022-09-23T09:24:55.330Z,52.26
2022-09-23T09:25:59.592Z,52.08
2022-09-23T09:27:03.919Z,52.19
2022-09-23T09:28:08.178Z,52.22
2022-09-23T09:29:36.872Z,52.13
2022-09-23T09:30:45.162Z,52.11
2022-09-23T09:31:51.985Z,51.75
2022-09-23T09:32:56.262Z,51.71
2022-09-23T09:34:00.552Z,51.71
2022-09-23T09:35:04.805Z,51.63
2022-09-23T09:36:09.222Z,51.88
2022-09-23T09:37:13.561Z,51.61
2022-09-23T09:38:17.872Z,51.6
2022-09-23T09:39:27.916Z,51.56
2022-09-23T09:40:32.486Z,51.45
2022-09-23T09:41:36.789Z,51.24
2022-09-23T09:42:41.063Z,51.23
2022-09-23T09:43:46.327Z,51.07
2022-09-23T09:44:51.596Z,51
2022-09-23T09:46:00.004Z,50.87
2022-09-23T09:47:04.457Z,50.85
2022-09-23T09:48:08.794Z,50.74
2022-09-23T09:49:13.089Z,50.76
2022-09-23T09:50:17.352Z,50.62
2022-09-23T09:51:21.708Z,50.57
2022-09-23T09:52:25.975Z,50.53
2022-09-23T09:53:30.236Z,50.44
2022-09-23T09:54:35.540Z,50.29
2022-09-23T09:55:39.853Z,50.14
2022-09-23T09:56:44.282Z,49.99
2022-09-23T09:57:48.568Z,50.05
2022-09-23T09:58:52.849Z,49.97
2022-09-23T09:59:57.135Z,49.8
2022-09-23T10:01:01.716Z,49.66
2022-09-23T10:02:06.013Z,49.58
2022-09-23T10:03:10.279Z,49.62
2022-09-23T10:04:14.739Z,49.59
2022-09-23T10:05:19.017Z,49.79
2022-09-23T10:06:23.306Z,49.61
2022-09-23T10:07:27.556Z,49.83
2022-09-23T10:08:31.871Z,49.62
2022-09-23T10:09:36.177Z,49.81
2022-09-23T10:10:40.450Z,49.66
2022-09-23T10:11:44.744Z,49.88
2022-09-23T10:12:48.997Z,49.85
2022-09-23T10:13:53.294Z,49.74
2022-09-23T10:14:57.664Z,49.72
2022-09-23T10:16:01.915Z,49.67
2022-09-23T10:17:06.606Z,49.58
2022-09-23T10:18:10.952Z,49.51
2022-09-23T10:19:15.214Z,49.39
2022-09-23T10:20:19.513Z,49.31
2022-09-23T10:21:29.477Z,49.47
2022-09-23T10:22:33.775Z,49.42
2022-09-23T10:23:38.060Z,49.23
2022-09-23T10:24:42.321Z,49.4
2022-09-23T10:25:46.595Z,49.29
2022-09-23T10:26:50.880Z,49
2022-09-23T10:27:55.164Z,48.8
2022-09-23T10:28:59.391Z,48.76
2022-09-23T10:30:03.706Z,48.75
2022-09-23T10:31:08.246Z,48.66
2022-09-23T10:32:12.626Z,48.68
2022-09-23T10:33:16.922Z,48.48
2022-09-23T10:34:21.180Z,48.44
2022-09-23T10:35:25.524Z,48.53
2022-09-23T10:36:29.782Z,48.44
2022-09-23T10:37:34.116Z,48.39
2022-09-23T10:38:38.362Z,48.5
2022-09-23T10:39:42.668Z,48.43
2022-09-23T10:40:47.470Z,48.69
2022-09-23T10:41:51.853Z,48.49
2022-09-23T10:42:56.120Z,48.57
2022-09-23T10:44:00.607Z,48.39
2022-09-23T10:45:04.955Z,48.6
2022-09-23T10:46:09.556Z,48.28
2022-09-23T10:47:13.851Z,48.32
2022-09-23T10:48:18.112Z,48.35
2022-09-23T10:49:22.424Z,48.2
2022-09-23T10:50:26.732Z,48.44
2022-09-23T10:51:31.121Z,48.43
2022-09-23T10:52:35.562Z,48.36
2022-09-23T10:53:39.897Z,48.36
2022-09-23T10:54:44.163Z,48.19
2022-09-23T10:55:48.436Z,48.08
2022-09-23T10:56:52.691Z,47.96
2022-09-23T10:57:56.970Z,48.14
2022-09-23T10:59:01.255Z,47.88
2022-09-23T11:00:05.531Z,47.83
2022-09-23T11:01:10.125Z,47.64
2022-09-23T11:02:14.767Z,47.66
2022-09-23T11:03:19.098Z,47.68
2022-09-23T11:04:23.524Z,47.96
2022-09-23T11:05:27.925Z,47.68
2022-09-23T11:06:32.219Z,47.78
2022-09-23T11:07:39.243Z,47.78
2022-09-23T11:08:43.564Z,47.53
2022-09-23T11:09:47.837Z,47.52
2022-09-23T11:10:52.097Z,47.51
2022-09-23T11:11:56.484Z,47.54
2022-09-23T11:13:00.746Z,47.45
2022-09-23T11:14:05.287Z,47.38
2022-09-23T11:15:09.644Z,47.48
2022-09-23T11:16:14.170Z,47.33
2022-09-23T11:17:18.578Z,47.24
2022-09-23T11:18:22.875Z,47.38
2022-09-23T11:19:27.155Z,47.23
2022-09-23T11:20:31.425Z,47.3
2022-09-23T11:21:35.994Z,47.21
2022-09-23T11:22:40.315Z,47.12
2022-09-23T11:23:44.603Z,47
2022-09-23T11:24:48.925Z,47.01
2022-09-23T11:25:53.231Z,47.2
2022-09-23T11:26:57.506Z,47.19
2022-09-23T11:28:01.772Z,47.23
2022-09-23T11:29:06.489Z,47.11
2022-09-23T11:30:10.934Z,47.06
2022-09-23T11:31:15.398Z,47.14
2022-09-23T11:32:19.651Z,47.08
2022-09-23T11:33:23.925Z,47.17
2022-09-23T11:34:28.248Z,47.05
2022-09-23T11:35:32.539Z,46.94
2022-09-23T11:36:36.847Z,46.95
2022-09-23T11:37:41.222Z,46.88
2022-09-23T11:38:45.547Z,46.92
2022-09-23T11:39:49.810Z,47.12
2022-09-23T11:40:54.329Z,46.67
2022-09-23T11:41:58.697Z,46.79
2022-09-23T11:43:02.958Z,46.9
2022-09-23T11:44:07.444Z,46.71
2022-09-23T11:45:11.808Z,46.72
2022-09-23T11:46:16.484Z,46.5
2022-09-23T11:47:20.792Z,46.61
2022-09-23T11:48:25.077Z,46.61
2022-09-23T11:49:29.358Z,46.55
2022-09-23T11:50:33.671Z,46.88
2022-09-23T11:51:37.968Z,46.74
2022-09-23T11:52:42.242Z,46.78
2022-09-23T11:53:46.499Z,46.64
2022-09-23T11:54:50.753Z,46.62
2022-09-23T11:56:00.197Z,46.71
2022-09-23T11:57:04.521Z,46.6
2022-09-23T11:58:27.034Z,46.51
2022-09-23T11:59:42.302Z,46.45
2022-09-23T12:01:01.685Z,46.34
2022-09-23T12:02:24.722Z,46.49
2022-09-23T12:03:46.209Z,46.41
2022-09-23T12:05:00.184Z,46.41
2022-09-23T12:06:04.689Z,46.26
2022-09-23T12:07:08.960Z,46.46
2022-09-23T12:08:13.214Z,46.31
2022-09-23T12:09:17.546Z,46.18
2022-09-23T12:10:21.810Z,46.15
2022-09-23T12:11:26.062Z,46.18
2022-09-23T12:12:30.363Z,46.25
2022-09-23T12:13:34.642Z,46.24
2022-09-23T12:14:38.984Z,46.22
2022-09-23T12:15:43.308Z,46.31
2022-09-23T12:16:47.735Z,46.46
2022-09-23T12:17:52.199Z,46.93
2022-09-23T12:18:56.475Z,46.47
2022-09-23T12:20:00.735Z,46.47
2022-09-23T12:21:05.067Z,46.33
2022-09-23T12:22:09.356Z,46.25
2022-09-23T12:23:13.632Z,46.21
2022-09-23T12:24:21.269Z,46.2
2022-09-23T12:25:25.515Z,45.97
2022-09-23T12:26:29.886Z,45.98
2022-09-23T12:27:34.154Z,46.07
2022-09-23T12:28:38.445Z,46.15
2022-09-23T12:29:42.708Z,46.59
2022-09-23T12:30:47.121Z,46.15
2022-09-23T12:31:51.428Z,46.24
2022-09-23T12:32:55.697Z,46.13
2022-09-23T12:33:59.974Z,46.16
2022-09-23T12:35:04.214Z,46.22
2022-09-23T12:36:08.502Z,46.47
2022-09-23T12:37:12.789Z,46.28
2022-09-23T12:38:17.103Z,46.32
2022-09-23T12:39:21.353Z,46.32
2022-09-23T12:40:25.911Z,46.3
2022-09-23T12:41:30.172Z,46.27
2022-09-23T12:42:34.440Z,46.33
2022-09-23T12:43:38.699Z,46.18
2022-09-23T12:44:43.005Z,46.02
2022-09-23T12:45:47.471Z,46.08
2022-09-23T12:46:51.788Z,46.09
2022-09-23T12:47:56.072Z,46.21
2022-09-23T12:49:00.367Z,46.21
2022-09-23T12:50:04.620Z,46.22
2022-09-23T12:51:08.898Z,46.29
2022-09-23T12:52:13.208Z,46.2
2022-09-23T12:53:17.453Z,46.1
2022-09-23T12:54:21.792Z,45.9
2022-09-23T12:55:26.116Z,46.11
2022-09-23T12:56:30.378Z,46.11
2022-09-23T12:57:34.857Z,46.16
2022-09-23T12:58:39.146Z,46.23
2022-09-23T12:59:43.437Z,45.98
2022-09-23T13:00:47.909Z,45.86
2022-09-23T13:01:52.708Z,45.91
2022-09-23T13:02:57.081Z,45.67
2022-09-23T13:04:01.427Z,45.83
2022-09-23T13:05:05.689Z,45.81
2022-09-23T13:06:09.961Z,45.83
2022-09-23T13:07:14.279Z,45.76
2022-09-23T13:08:18.554Z,45.8
2022-09-23T13:09:22.844Z,45.81
2022-09-23T13:10:27.125Z,45.79
2022-09-23T13:11:31.610Z,45.67
2022-09-23T13:12:35.958Z,45.86
2022-09-23T13:13:40.267Z,45.61
2022-09-23T13:14:44.527Z,45.77
2022-09-23T13:15:48.837Z,45.81
2022-09-23T13:16:53.287Z,45.73
2022-09-23T13:17:57.569Z,45.75
2022-09-23T13:19:01.877Z,45.82
2022-09-23T13:20:06.264Z,45.88
2022-09-23T13:21:10.547Z,45.77
2022-09-23T13:22:14.839Z,46.01
2022-09-23T13:23:19.440Z,45.7
2022-09-23T13:24:23.773Z,46.22
2022-09-23T13:25:28.074Z,46.12
2022-09-23T13:26:32.357Z,46.18
2022-09-23T13:27:36.629Z,46.15
2022-09-23T13:28:40.918Z,46.2
2022-09-23T13:29:45.247Z,46.29
2022-09-23T13:30:49.524Z,46.26
2022-09-23T13:31:53.995Z,46.41
2022-09-23T13:32:58.265Z,46.37
2022-09-23T13:34:02.650Z,46.32
2022-09-23T13:35:06.991Z,46.3
2022-09-23T13:36:11.265Z,46.37
2022-09-23T13:37:21.574Z,46.35
2022-09-23T13:38:26.582Z,46.33
2022-09-23T13:39:30.883Z,46.42
2022-09-23T13:40:35.658Z,46.6
2022-09-23T13:41:40.024Z,46.67
2022-09-23T13:42:44.327Z,46.67
2022-09-23T13:43:48.626Z,46.66
2022-09-23T13:44:53.012Z,46.7
2022-09-23T13:45:57.474Z,46.78
2022-09-23T13:47:01.759Z,46.82
2022-09-23T13:48:06.152Z,46.86
2022-09-23T13:49:10.441Z,46.89
2022-09-23T13:50:15.015Z,47.13
2022-09-23T13:51:19.504Z,47.13
2022-09-23T13:52:23.790Z,47.18
2022-09-23T13:53:28.112Z,47.19
2022-09-23T13:54:32.398Z,47.22
2022-09-23T13:55:36.642Z,47.23
2022-09-23T13:56:40.900Z,47.22